createdAt,value
2023-04-10T00:00:13.173Z,1021.39
2023-04-10T00:01:13.176Z,1021.41
2023-04-10T00:02:13.308Z,1021.38
2023-04-10T00:03:13.484Z,1021.38
2023-04-10T00:04:13.242Z,1021.34
2023-04-10T00:05:13.207Z,1021.37
2023-04-10T00:06:13.194Z,1021.32
2023-04-10T00:07:13.193Z,1021.35
2023-04-10T00:08:13.208Z,1021.31
2023-04-10T00:09:13.140Z,1021.30
2023-04-10T00:10:13.205Z,1021.26
2023-04-10T00:11:13.128Z,1021.30
2023-04-10T00:12:13.102Z,1021.33
2023-04-10T00:13:13.156Z,1021.30
2023-04-10T00:14:13.195Z,1021.27
2023-04-10T00:15:13.086Z,1021.32
2023-04-10T00:16:13.188Z,1021.29
2023-04-10T00:17:13.111Z,1021.21
2023-04-10T00:18:13.081Z,1021.24
2023-04-10T00:19:13.072Z,1021.23
2023-04-10T00:20:13.089Z,1021.23
2023-04-10T00:21:13.113Z,1021.20
2023-04-10T00:22:13.085Z,1021.22
2023-04-10T00:23:13.102Z,1021.23
2023-04-10T00:24:13.108Z,1021.19
2023-04-10T00:25:13.043Z,1021.20
2023-04-10T00:26:14.030Z,1021.20
2023-04-10T00:27:13.084Z,1021.21
2023-04-10T00:28:13.039Z,1021.17
2023-04-10T00:29:13.059Z,1021.15
2023-04-10T00:30:13.043Z,1021.18
2023-04-10T00:31:13.044Z,1021.17
2023-04-10T00:32:13.060Z,1021.16
2023-04-10T00:33:13.102Z,1021.15
2023-04-10T00:34:13.035Z,1021.12
2023-04-10T00:35:13.006Z,1021.10
2023-04-10T00:36:13.027Z,1021.08
2023-04-10T00:37:12.996Z,1021.09
2023-04-10T00:38:13.027Z,1021.07
2023-04-10T00:39:12.978Z,1021.03
2023-04-10T00:40:13.030Z,1021.04
2023-04-10T00:41:12.955Z,1021.08
2023-04-10T00:42:12.946Z,1021.06
2023-04-10T00:43:12.949Z,1021.03
2023-04-10T00:44:12.947Z,1021.03
2023-04-10T00:45:12.934Z,1021.04
2023-04-10T00:46:12.995Z,1021.04
2023-04-10T00:47:12.967Z,1021.00
2023-04-10T00:48:12.950Z,1020.99
2023-04-10T00:49:12.900Z,1020.96
2023-04-10T00:50:12.983Z,1020.95
2023-04-10T00:51:12.909Z,1020.94
2023-04-10T00:52:12.898Z,1020.88
2023-04-10T00:53:12.893Z,1020.88
2023-04-10T00:54:12.865Z,1020.87
2023-04-10T00:55:12.960Z,1020.88
2023-04-10T00:56:12.882Z,1020.88
2023-04-10T00:57:12.875Z,1020.86
2023-04-10T00:58:12.902Z,1020.84
2023-04-10T00:59:12.898Z,1020.88
2023-04-10T01:00:12.911Z,1020.87
2023-04-10T01:01:12.928Z,1020.82
2023-04-10T01:02:13.004Z,1020.83
2023-04-10T01:03:12.952Z,1020.85
2023-04-10T01:04:12.870Z,1020.85
2023-04-10T01:05:12.801Z,1020.81
2023-04-10T01:06:12.798Z,1020.83
2023-04-10T01:07:12.803Z,1020.81
2023-04-10T01:08:12.804Z,1020.82
2023-04-10T01:09:12.818Z,1020.81
2023-04-10T01:10:12.812Z,1020.83
2023-04-10T01:11:12.815Z,1020.84
2023-04-10T01:12:12.794Z,1020.83
2023-04-10T01:13:12.781Z,1020.84
2023-04-10T01:14:12.801Z,1020.86
2023-04-10T01:15:12.767Z,1020.84
2023-04-10T01:16:12.747Z,1020.84
2023-04-10T01:17:12.812Z,1020.87
2023-04-10T01:18:12.733Z,1020.87
2023-04-10T01:19:12.739Z,1020.86
2023-04-10T01:20:12.749Z,1020.87
2023-04-10T01:21:12.771Z,1020.87
2023-04-10T01:22:12.739Z,1020.90
2023-04-10T01:23:12.735Z,1020.87
2023-04-10T01:24:12.707Z,1020.89
2023-04-10T01:25:12.764Z,1020.87
2023-04-10T01:26:12.714Z,1020.88
2023-04-10T01:27:12.722Z,1020.90
2023-04-10T01:28:12.693Z,1020.90
2023-04-10T01:29:12.675Z,1020.88
2023-04-10T01:30:12.671Z,1020.86
2023-04-10T01:31:12.720Z,1020.93
2023-04-10T01:32:12.702Z,1020.91
2023-04-10T01:33:12.658Z,1020.94
2023-04-10T01:34:12.651Z,1020.90
2023-04-10T01:35:12.640Z,1020.94
2023-04-10T01:36:12.660Z,1020.91
2023-04-10T01:37:12.629Z,1020.92
2023-04-10T01:38:12.637Z,1020.94
2023-04-10T01:39:12.621Z,1020.91
2023-04-10T01:40:12.625Z,1020.90
2023-04-10T01:41:12.690Z,1020.87
2023-04-10T01:42:12.657Z,1020.89
2023-04-10T01:43:12.626Z,1020.91
2023-04-10T01:44:19.737Z,1020.92
2023-04-10T01:46:16.637Z,1020.88
2023-04-10T01:47:16.581Z,1020.85
2023-04-10T01:49:20.569Z,1020.82
2023-04-10T01:50:20.568Z,1020.80
2023-04-10T01:52:24.560Z,1020.79
2023-04-10T01:53:24.517Z,1020.77
2023-04-10T01:55:17.426Z,1020.78
2023-04-10T01:56:17.421Z,1020.72
2023-04-10T01:58:21.483Z,1020.75
2023-04-10T01:59:21.456Z,1020.83
2023-04-10T02:01:30.055Z,1020.78
2023-04-10T02:02:25.646Z,1020.78
2023-04-10T02:04:18.448Z,1020.83
2023-04-10T02:05:18.333Z,1020.81
2023-04-10T02:07:22.301Z,1020.82
2023-04-10T02:08:22.300Z,1020.83
2023-04-10T02:10:26.319Z,1020.81
2023-04-10T02:11:26.265Z,1020.79
2023-04-10T02:13:30.248Z,1020.83
2023-04-10T02:14:30.244Z,1020.82
2023-04-10T02:16:34.367Z,1020.82
2023-04-10T02:17:34.224Z,1020.79
2023-04-10T02:19:38.215Z,1020.79
2023-04-10T02:20:38.194Z,1020.76
2023-04-10T02:21:38.226Z,1020.77
2023-04-10T02:22:38.185Z,1020.73
2023-04-10T02:23:38.174Z,1020.67
2023-04-10T02:24:38.160Z,1020.72
2023-04-10T02:25:38.159Z,1020.72
2023-04-10T02:26:38.162Z,1020.74
2023-04-10T02:27:38.146Z,1020.74
2023-04-10T02:28:38.138Z,1020.68
2023-04-10T02:29:38.134Z,1020.74
2023-04-10T02:30:38.130Z,1020.77
2023-04-10T02:31:38.226Z,1020.76
2023-04-10T02:32:38.155Z,1020.75
2023-04-10T02:33:38.121Z,1020.76
2023-04-10T02:34:38.098Z,1020.74
2023-04-10T02:35:38.139Z,1020.76
2023-04-10T02:36:38.089Z,1020.79
2023-04-10T02:37:38.085Z,1020.76
2023-04-10T02:38:38.099Z,1020.74
2023-04-10T02:39:38.081Z,1020.77
2023-04-10T02:40:38.080Z,1020.77
2023-04-10T02:41:38.053Z,1020.75
2023-04-10T02:42:38.054Z,1020.79
2023-04-10T02:43:38.052Z,1020.82
2023-04-10T02:44:38.053Z,1020.81
2023-04-10T02:45:38.032Z,1020.81
2023-04-10T02:46:38.101Z,1020.79
2023-04-10T02:47:38.059Z,1020.81
2023-04-10T02:48:38.019Z,1020.84
2023-04-10T02:49:38.032Z,1020.84
2023-04-10T02:50:38.009Z,1020.80
2023-04-10T02:51:37.996Z,1020.84
2023-04-10T02:52:38.011Z,1020.84
2023-04-10T02:53:37.995Z,1020.83
2023-04-10T02:54:37.982Z,1020.85
2023-04-10T02:55:37.978Z,1020.88
2023-04-10T02:56:37.971Z,1020.86
2023-04-10T02:57:37.962Z,1020.83
2023-04-10T02:58:37.957Z,1020.85
2023-04-10T02:59:37.958Z,1020.83
2023-04-10T03:00:37.949Z,1020.82
2023-04-10T03:01:38.083Z,1020.85
2023-04-10T03:02:38.057Z,1020.83
2023-04-10T03:03:38.001Z,1020.86
2023-04-10T03:04:37.991Z,1020.83
2023-04-10T03:05:37.911Z,1020.84
2023-04-10T03:06:37.904Z,1020.84
2023-04-10T03:07:37.902Z,1020.84
2023-04-10T03:08:37.900Z,1020.86
2023-04-10T03:09:37.929Z,1020.89
2023-04-10T03:10:37.907Z,1020.87
2023-04-10T03:11:37.871Z,1020.87
2023-04-10T03:12:37.883Z,1020.86
2023-04-10T03:13:37.870Z,1020.88
2023-04-10T03:14:37.857Z,1020.88
2023-04-10T03:15:37.853Z,1020.88
2023-04-10T03:16:37.940Z,1020.86
2023-04-10T03:17:37.884Z,1020.83
2023-04-10T03:18:37.860Z,1020.84
2023-04-10T03:19:37.820Z,1020.84
2023-04-10T03:20:37.813Z,1020.82
2023-04-10T03:21:37.822Z,1020.81
2023-04-10T03:22:37.805Z,1020.80
2023-04-10T03:23:37.812Z,1020.78
2023-04-10T03:24:37.804Z,1020.81
2023-04-10T03:25:37.805Z,1020.82
2023-04-10T03:26:37.780Z,1020.82
2023-04-10T03:27:37.782Z,1020.80
2023-04-10T03:28:37.777Z,1020.83
2023-04-10T03:29:37.759Z,1020.76
2023-04-10T03:30:37.759Z,1020.79
2023-04-10T03:31:37.872Z,1020.75
2023-04-10T03:32:37.764Z,1020.75
2023-04-10T03:33:37.811Z,1020.74
2023-04-10T03:34:37.895Z,1020.74
2023-04-10T03:35:37.800Z,1020.73
2023-04-10T03:36:37.720Z,1020.70
2023-04-10T03:37:37.716Z,1020.71
2023-04-10T03:38:37.722Z,1020.70
2023-04-10T03:39:37.713Z,1020.74
2023-04-10T03:40:37.730Z,1020.70
2023-04-10T03:41:37.681Z,1020.76
2023-04-10T03:42:37.688Z,1020.70
2023-04-10T03:43:37.677Z,1020.74
2023-04-10T03:44:37.670Z,1020.77
2023-04-10T03:45:37.655Z,1020.76
2023-04-10T03:46:37.717Z,1020.77
2023-04-10T03:47:37.660Z,1020.76
2023-04-10T03:48:37.641Z,1020.75
2023-04-10T03:49:37.626Z,1020.76
2023-04-10T03:50:37.626Z,1020.77
2023-04-10T03:51:37.630Z,1020.81
2023-04-10T03:52:37.610Z,1020.79
2023-04-10T03:53:37.601Z,1020.76
2023-04-10T03:54:37.610Z,1020.73
2023-04-10T03:55:37.615Z,1020.71
2023-04-10T03:56:37.660Z,1020.74
2023-04-10T03:57:37.575Z,1020.77
2023-04-10T03:58:37.574Z,1020.78
2023-04-10T03:59:38.800Z,1020.77
2023-04-10T04:00:37.570Z,1020.81
2023-04-10T04:01:37.555Z,1020.80
2023-04-10T04:02:37.617Z,1020.81
2023-04-10T04:03:37.646Z,1020.82
2023-04-10T04:04:37.625Z,1020.82
2023-04-10T04:05:37.531Z,1020.82
2023-04-10T04:06:37.541Z,1020.82
2023-04-10T04:07:37.515Z,1020.79
2023-04-10T04:08:37.512Z,1020.81
2023-04-10T04:09:37.520Z,1020.85
2023-04-10T04:10:37.537Z,1020.81
2023-04-10T04:11:37.476Z,1020.79
2023-04-10T04:12:37.484Z,1020.81
2023-04-10T04:13:37.472Z,1020.80
2023-04-10T04:14:37.472Z,1020.76
2023-04-10T04:15:37.465Z,1020.80
2023-04-10T04:16:37.497Z,1020.74
2023-04-10T04:17:37.478Z,1020.75
2023-04-10T04:18:37.451Z,1020.79
2023-04-10T04:19:37.459Z,1020.76
2023-04-10T04:20:37.458Z,1020.76
2023-04-10T04:21:37.423Z,1020.77
2023-04-10T04:22:37.420Z,1020.78
2023-04-10T04:23:37.419Z,1020.78
2023-04-10T04:24:37.424Z,1020.76
2023-04-10T04:25:37.410Z,1020.78
2023-04-10T04:26:37.436Z,1020.78
2023-04-10T04:27:37.377Z,1020.81
2023-04-10T04:28:37.422Z,1020.80
2023-04-10T04:29:37.365Z,1020.83
2023-04-10T04:30:37.389Z,1020.82
2023-04-10T04:31:37.363Z,1020.80
2023-04-10T04:32:37.380Z,1020.77
2023-04-10T04:33:37.347Z,1020.78
2023-04-10T04:34:37.388Z,1020.78
2023-04-10T04:35:37.356Z,1020.78
2023-04-10T04:36:37.331Z,1020.77
2023-04-10T04:37:37.313Z,1020.80
2023-04-10T04:38:37.309Z,1020.77
2023-04-10T04:39:37.436Z,1020.80
2023-04-10T04:40:37.302Z,1020.80
2023-04-10T04:41:37.310Z,1020.75
2023-04-10T04:42:37.296Z,1020.76
2023-04-10T04:43:37.274Z,1020.79
2023-04-10T04:44:37.278Z,1020.81
2023-04-10T04:45:37.316Z,1020.75
2023-04-10T04:46:37.280Z,1020.81
2023-04-10T04:47:37.328Z,1020.80
2023-04-10T04:48:37.266Z,1020.80
2023-04-10T04:49:37.266Z,1020.82
2023-04-10T04:50:37.229Z,1020.82
2023-04-10T04:51:37.224Z,1020.82
2023-04-10T04:52:37.239Z,1020.80
2023-04-10T04:53:37.216Z,1020.83
2023-04-10T04:54:37.214Z,1020.78
2023-04-10T04:55:37.204Z,1020.81
2023-04-10T04:56:37.207Z,1020.83
2023-04-10T04:57:37.183Z,1020.83
2023-04-10T04:58:37.183Z,1020.81
2023-04-10T04:59:37.171Z,1020.82
2023-04-10T05:00:37.160Z,1020.80
2023-04-10T05:01:37.229Z,1020.82
2023-04-10T05:02:37.319Z,1020.80
2023-04-10T05:03:37.282Z,1020.82
2023-04-10T05:04:37.151Z,1020.85
2023-04-10T05:05:37.122Z,1020.85
2023-04-10T05:06:37.131Z,1020.87
2023-04-10T05:07:37.139Z,1020.92
2023-04-10T05:08:37.117Z,1020.85
2023-04-10T05:09:37.102Z,1020.85
2023-04-10T05:10:38.872Z,1020.87
2023-04-10T05:11:37.103Z,1020.85
2023-04-10T05:12:37.078Z,1020.83
2023-04-10T05:13:37.067Z,1020.87
2023-04-10T05:14:37.064Z,1020.91
2023-04-10T05:15:37.090Z,1020.87
2023-04-10T05:16:37.100Z,1020.82
2023-04-10T05:17:37.110Z,1020.87
2023-04-10T05:18:37.173Z,1020.80
2023-04-10T05:19:37.049Z,1020.82
2023-04-10T05:20:37.074Z,1020.83
2023-04-10T05:21:37.068Z,1020.80
2023-04-10T05:22:37.061Z,1020.82
2023-04-10T05:23:37.016Z,1020.88
2023-04-10T05:24:37.004Z,1020.84
2023-04-10T05:25:37.010Z,1020.85
2023-04-10T05:26:37.006Z,1020.89
2023-04-10T05:27:36.983Z,1020.86
2023-04-10T05:28:36.989Z,1020.88
2023-04-10T05:29:36.971Z,1020.89
2023-04-10T05:30:36.969Z,1020.91
2023-04-10T05:31:37.001Z,1020.88
2023-04-10T05:32:36.957Z,1020.90
2023-04-10T05:33:36.952Z,1020.95
2023-04-10T05:34:36.956Z,1020.92
2023-04-10T05:35:36.987Z,1020.91
2023-04-10T05:36:36.932Z,1020.92
2023-04-10T05:37:36.921Z,1020.92
2023-04-10T05:38:36.917Z,1020.93
2023-04-10T05:39:36.914Z,1020.97
2023-04-10T05:40:36.908Z,1020.93
2023-04-10T05:41:36.908Z,1020.91
2023-04-10T05:42:36.884Z,1020.94
2023-04-10T05:43:36.908Z,1020.93
2023-04-10T05:44:36.895Z,1020.92
2023-04-10T05:45:36.883Z,1020.92
2023-04-10T05:46:36.925Z,1020.94
2023-04-10T05:47:36.892Z,1020.91
2023-04-10T05:48:36.881Z,1020.91
2023-04-10T05:49:36.863Z,1020.95
2023-04-10T05:50:36.869Z,1020.93
2023-04-10T05:51:36.847Z,1020.94
2023-04-10T05:52:36.840Z,1020.90
2023-04-10T05:53:36.824Z,1020.91
2023-04-10T05:54:36.819Z,1020.89
2023-04-10T05:55:36.816Z,1020.91
2023-04-10T05:56:36.835Z,1020.95
2023-04-10T05:57:36.816Z,1020.92
2023-04-10T05:58:36.852Z,1020.89
2023-04-10T05:59:36.794Z,1020.92
2023-04-10T06:00:36.790Z,1020.92
2023-04-10T06:01:36.795Z,1020.95
2023-04-10T06:02:37.054Z,1020.95
2023-04-10T06:03:36.925Z,1020.99
2023-04-10T06:04:36.891Z,1020.93
2023-04-10T06:05:36.766Z,1020.96
2023-04-10T06:06:36.753Z,1020.90
2023-04-10T06:07:36.780Z,1020.91
2023-04-10T06:08:36.738Z,1020.94
2023-04-10T06:09:36.755Z,1020.96
2023-04-10T06:10:36.728Z,1020.95
2023-04-10T06:11:36.739Z,1020.94
2023-04-10T06:12:36.721Z,1020.99
2023-04-10T06:13:36.725Z,1020.92
2023-04-10T06:14:36.721Z,1020.95
2023-04-10T06:15:36.706Z,1020.99
2023-04-10T06:16:36.928Z,1020.95
2023-04-10T06:17:36.711Z,1020.93
2023-04-10T06:18:36.695Z,1020.95
2023-04-10T06:19:36.686Z,1020.93
2023-04-10T06:20:36.681Z,1020.91
2023-04-10T06:21:36.690Z,1020.89
2023-04-10T06:22:36.727Z,1020.91
2023-04-10T06:23:36.673Z,1020.91
2023-04-10T06:24:36.806Z,1020.90
2023-04-10T06:25:36.658Z,1020.90
2023-04-10T06:26:36.643Z,1020.87
2023-04-10T06:27:36.643Z,1020.90
2023-04-10T06:28:36.637Z,1020.88
2023-04-10T06:29:36.636Z,1020.88
2023-04-10T06:30:36.646Z,1020.86
2023-04-10T06:31:36.702Z,1020.87
2023-04-10T06:32:36.665Z,1020.92
2023-04-10T06:33:36.686Z,1020.97
2023-04-10T06:34:36.612Z,1020.99
2023-04-10T06:35:36.676Z,1021.06
2023-04-10T06:36:36.603Z,1021.03
2023-04-10T06:37:36.624Z,1021.01
2023-04-10T06:38:36.619Z,1021.05
2023-04-10T06:39:36.613Z,1021.05
2023-04-10T06:40:36.607Z,1021.01
2023-04-10T06:41:36.624Z,1021.05
2023-04-10T06:42:36.643Z,1021.01
2023-04-10T06:43:36.621Z,1021.02
2023-04-10T06:44:36.598Z,1021.05
2023-04-10T06:45:36.601Z,1021.01
2023-04-10T06:46:36.617Z,1021.03
2023-04-10T06:47:36.654Z,1021.03
2023-04-10T06:48:36.600Z,1021.04
2023-04-10T06:49:36.608Z,1020.95
2023-04-10T06:50:36.608Z,1020.95
2023-04-10T06:51:36.638Z,1020.92
2023-04-10T06:52:36.627Z,1021.04
2023-04-10T06:53:36.641Z,1021.02
2023-04-10T06:54:36.625Z,1021.03
2023-04-10T06:55:36.617Z,1021.01
2023-04-10T06:56:36.611Z,1021.03
2023-04-10T06:57:36.653Z,1021.06
2023-04-10T06:58:36.617Z,1021.03
2023-04-10T06:59:36.641Z,1021.07
2023-04-10T07:00:36.666Z,1021.14
2023-04-10T07:01:36.653Z,1021.11
2023-04-10T07:02:36.682Z,1021.09
2023-04-10T07:03:36.744Z,1021.06
2023-04-10T07:04:36.677Z,1021.09
2023-04-10T07:05:36.647Z,1021.01
2023-04-10T07:06:36.650Z,1021.01
2023-04-10T07:07:36.660Z,1020.99
2023-04-10T07:08:36.660Z,1020.98
2023-04-10T07:09:36.679Z,1020.97
2023-04-10T07:10:36.677Z,1021.05
2023-04-10T07:11:36.677Z,1021.02
2023-04-10T07:12:36.692Z,1020.99
2023-04-10T07:13:36.715Z,1021.00
2023-04-10T07:14:36.700Z,1021.02
2023-04-10T07:15:36.717Z,1021.02
2023-04-10T07:16:36.755Z,1021.02
2023-04-10T07:17:36.758Z,1021.04
2023-04-10T07:18:36.770Z,1021.03
2023-04-10T07:19:36.754Z,1021.03
2023-04-10T07:20:36.740Z,1021.07
2023-04-10T07:21:36.790Z,1021.02
2023-04-10T07:22:36.760Z,1020.99
2023-04-10T07:23:36.787Z,1021.05
2023-04-10T07:24:36.801Z,1021.04
2023-04-10T07:25:36.837Z,1021.04
2023-04-10T07:26:36.816Z,1021.10
2023-04-10T07:27:36.832Z,1021.08
2023-04-10T07:28:36.813Z,1021.06
2023-04-10T07:29:36.810Z,1021.08
2023-04-10T07:30:36.847Z,1021.13
2023-04-10T07:31:36.893Z,1021.11
2023-04-10T07:32:36.949Z,1021.09
2023-04-10T07:33:36.866Z,1021.05
2023-04-10T07:34:36.878Z,1021.03
2023-04-10T07:35:36.936Z,1021.08
2023-04-10T07:36:36.883Z,1021.09
2023-04-10T07:37:36.906Z,1021.06
2023-04-10T07:38:36.903Z,1021.05
2023-04-10T07:39:36.902Z,1021.01
2023-04-10T07:40:36.920Z,1020.96
2023-04-10T07:41:36.923Z,1021.00
2023-04-10T07:42:36.972Z,1021.01
2023-04-10T07:43:36.950Z,1021.00
2023-04-10T07:44:36.966Z,1021.03
2023-04-10T07:45:37.022Z,1021.04
2023-04-10T07:46:36.961Z,1021.05
2023-04-10T07:47:37.010Z,1021.00
2023-04-10T07:48:37.017Z,1021.08
2023-04-10T07:49:37.220Z,1021.06
2023-04-10T07:50:37.009Z,1021.05
2023-04-10T07:51:37.016Z,1021.03
2023-04-10T07:52:37.029Z,1021.04
2023-04-10T07:53:37.022Z,1021.07
2023-04-10T07:54:37.038Z,1021.06
2023-04-10T07:55:37.051Z,1021.08
2023-04-10T07:56:37.059Z,1021.06
2023-04-10T07:57:37.076Z,1021.05
2023-04-10T07:58:37.073Z,1021.06
2023-04-10T07:59:37.088Z,1021.07
2023-04-10T08:00:37.113Z,1021.03
2023-04-10T08:01:37.164Z,1021.03
2023-04-10T08:02:37.207Z,1020.97
2023-04-10T08:03:37.278Z,1020.98
2023-04-10T08:04:37.321Z,1020.97
2023-04-10T08:05:37.149Z,1020.96
2023-04-10T08:06:37.159Z,1020.92
2023-04-10T08:07:37.182Z,1020.86
2023-04-10T08:08:37.178Z,1020.94
2023-04-10T08:09:37.194Z,1020.87
2023-04-10T08:10:37.202Z,1020.86
2023-04-10T08:11:38.331Z,1020.85
2023-04-10T08:12:37.235Z,1020.83
2023-04-10T08:13:37.275Z,1020.82
2023-04-10T08:14:37.274Z,1020.84
2023-04-10T08:15:37.281Z,1020.82
2023-04-10T08:16:37.328Z,1020.83
2023-04-10T08:17:37.309Z,1020.80
2023-04-10T08:18:37.337Z,1020.86
2023-04-10T08:19:37.317Z,1020.79
2023-04-10T08:20:37.343Z,1020.79
2023-04-10T08:21:37.340Z,1020.76
2023-04-10T08:22:37.359Z,1020.71
2023-04-10T08:23:37.351Z,1020.74
2023-04-10T08:24:37.368Z,1020.77
2023-04-10T08:25:37.394Z,1020.71
2023-04-10T08:26:37.370Z,1020.73
2023-04-10T08:27:37.575Z,1020.71
2023-04-10T08:28:37.394Z,1020.71
2023-04-10T08:29:37.396Z,1020.68
2023-04-10T08:30:37.473Z,1020.69
2023-04-10T08:31:37.425Z,1020.66
2023-04-10T08:32:37.504Z,1020.71
2023-04-10T08:33:37.443Z,1020.70
2023-04-10T08:34:37.433Z,1020.73
2023-04-10T08:35:37.456Z,1020.65
2023-04-10T08:36:37.495Z,1020.74
2023-04-10T08:37:37.632Z,1020.68
2023-04-10T08:38:37.519Z,1020.67
2023-04-10T08:39:37.501Z,1020.65
2023-04-10T08:40:37.520Z,1020.65
2023-04-10T08:41:37.476Z,1020.61
2023-04-10T08:42:37.493Z,1020.59
2023-04-10T08:43:37.526Z,1020.62
2023-04-10T08:44:37.529Z,1020.58
2023-04-10T08:45:37.502Z,1020.57
2023-04-10T08:46:37.537Z,1020.53
2023-04-10T08:47:37.535Z,1020.56
2023-04-10T08:48:37.496Z,1020.53
2023-04-10T08:49:37.513Z,1020.53
2023-04-10T08:50:37.526Z,1020.51
2023-04-10T08:51:37.520Z,1020.48
2023-04-10T08:52:37.511Z,1020.48
2023-04-10T08:53:37.536Z,1020.52
2023-04-10T08:54:37.507Z,1020.47
2023-04-10T08:55:37.531Z,1020.48
2023-04-10T08:56:37.524Z,1020.48
2023-04-10T08:57:38.859Z,1020.40
2023-04-10T08:58:37.504Z,1020.44
2023-04-10T08:59:37.507Z,1020.39
2023-04-10T09:00:37.509Z,1020.40
2023-04-10T09:01:37.591Z,1020.36
2023-04-10T09:02:40.049Z,1020.34
2023-04-10T09:03:37.731Z,1020.36
2023-04-10T09:04:37.597Z,1020.35
2023-04-10T09:05:37.530Z,1020.34
2023-04-10T09:06:37.547Z,1020.34
2023-04-10T09:07:37.531Z,1020.32
2023-04-10T09:08:37.529Z,1020.31
2023-04-10T09:09:37.536Z,1020.32
2023-04-10T09:10:37.519Z,1020.29
2023-04-10T09:11:37.525Z,1020.25
2023-04-10T09:12:37.601Z,1020.25
2023-04-10T09:13:37.532Z,1020.26
2023-04-10T09:14:37.524Z,1020.19
2023-04-10T09:15:37.547Z,1020.21
2023-04-10T09:16:37.524Z,1020.19
2023-04-10T09:17:37.544Z,1020.15
2023-04-10T09:18:37.530Z,1020.11
2023-04-10T09:19:37.523Z,1020.07
2023-04-10T09:20:37.552Z,1020.09
2023-04-10T09:21:37.533Z,1020.05
2023-04-10T09:22:37.531Z,1020.02
2023-04-10T09:23:37.543Z,1020.03
2023-04-10T09:24:37.533Z,1020.04
2023-04-10T09:25:37.607Z,1020.05
2023-04-10T09:26:37.532Z,1020.03
2023-04-10T09:27:37.571Z,1020.04
2023-04-10T09:28:37.690Z,1020.01
2023-04-10T09:29:37.530Z,1020.00
2023-04-10T09:30:37.520Z,1019.99
2023-04-10T09:31:37.733Z,1020.00
2023-04-10T09:32:37.548Z,1019.98
2023-04-10T09:33:37.534Z,1019.98
2023-04-10T09:34:37.522Z,1019.95
2023-04-10T09:35:37.576Z,1019.98
2023-04-10T09:36:37.631Z,1019.95
2023-04-10T09:37:37.531Z,1019.92
2023-04-10T09:38:37.552Z,1019.85
2023-04-10T09:39:37.542Z,1019.85
2023-04-10T09:40:37.526Z,1019.88
2023-04-10T09:41:37.518Z,1019.84
2023-04-10T09:42:37.581Z,1019.85
2023-04-10T09:43:37.524Z,1019.83
2023-04-10T09:44:37.533Z,1019.81
2023-04-10T09:45:37.519Z,1019.81
2023-04-10T09:46:37.554Z,1019.76
2023-04-10T09:47:37.547Z,1019.75
2023-04-10T09:48:37.547Z,1019.76
2023-04-10T09:49:37.527Z,1019.69
2023-04-10T09:50:39.547Z,1019.69
2023-04-10T09:51:37.519Z,1019.66
2023-04-10T09:52:37.520Z,1019.68
2023-04-10T09:53:37.535Z,1019.66
2023-04-10T09:54:37.535Z,1019.65
2023-04-10T09:55:37.516Z,1019.61
2023-04-10T09:56:37.518Z,1019.62
2023-04-10T09:57:37.536Z,1019.62
2023-04-10T09:58:37.518Z,1019.64
2023-04-10T09:59:37.532Z,1019.57
2023-04-10T10:00:37.545Z,1019.53
2023-04-10T10:01:37.638Z,1019.55
2023-04-10T10:02:37.709Z,1019.54
2023-04-10T10:03:37.575Z,1019.53
2023-04-10T10:04:37.576Z,1019.55
2023-04-10T10:05:37.506Z,1019.57
2023-04-10T10:06:37.520Z,1019.50
2023-04-10T10:07:37.519Z,1019.46
2023-04-10T10:08:37.529Z,1019.44
2023-04-10T10:09:37.537Z,1019.45
2023-04-10T10:10:37.519Z,1019.44
2023-04-10T10:11:37.528Z,1019.45
2023-04-10T10:12:37.532Z,1019.40
2023-04-10T10:13:37.572Z,1019.45
2023-04-10T10:14:38.339Z,1019.43
2023-04-10T10:15:37.518Z,1019.46
2023-04-10T10:16:37.592Z,1019.40
2023-04-10T10:17:37.583Z,1019.40
2023-04-10T10:18:37.521Z,1019.37
2023-04-10T10:19:37.513Z,1019.32
2023-04-10T10:20:37.521Z,1019.31
2023-04-10T10:21:37.536Z,1019.31
2023-04-10T10:22:37.552Z,1019.31
2023-04-10T10:23:37.522Z,1019.31
2023-04-10T10:24:37.510Z,1019.25
2023-04-10T10:25:37.509Z,1019.22
2023-04-10T10:26:37.515Z,1019.25
2023-04-10T10:27:37.519Z,1019.24
2023-04-10T10:28:37.551Z,1019.27
2023-04-10T10:29:37.501Z,1019.26
2023-04-10T10:30:37.512Z,1019.26
2023-04-10T10:31:37.642Z,1019.24
2023-04-10T10:32:37.530Z,1019.18
2023-04-10T10:33:37.506Z,1019.18
2023-04-10T10:34:37.515Z,1019.20
2023-04-10T10:35:37.514Z,1019.12
2023-04-10T10:36:37.577Z,1019.16
2023-04-10T10:37:37.495Z,1019.14
2023-04-10T10:38:37.540Z,1019.15
2023-04-10T10:39:37.490Z,1019.15
2023-04-10T10:40:37.510Z,1019.12
2023-04-10T10:41:37.486Z,1019.07
2023-04-10T10:42:37.589Z,1019.06
2023-04-10T10:43:37.504Z,1019.01
2023-04-10T10:44:37.527Z,1019.02
2023-04-10T10:45:37.544Z,1018.97
2023-04-10T10:46:37.515Z,1018.90
2023-04-10T10:47:37.494Z,1018.94
2023-04-10T10:48:37.509Z,1018.93
2023-04-10T10:49:37.532Z,1018.95
2023-04-10T10:50:37.578Z,1018.92
2023-04-10T10:51:37.526Z,1018.91
2023-04-10T10:52:37.495Z,1018.90
2023-04-10T10:53:37.512Z,1018.87
2023-04-10T10:54:42.451Z,1018.87
2023-04-10T10:55:37.610Z,1018.79
2023-04-10T10:56:37.513Z,1018.77
2023-04-10T10:57:37.478Z,1018.78
2023-04-10T10:58:37.493Z,1018.79
2023-04-10T10:59:37.501Z,1018.80
2023-04-10T11:00:37.576Z,1018.83
2023-04-10T11:01:37.609Z,1018.76
2023-04-10T11:02:37.580Z,1018.70
2023-04-10T11:03:37.574Z,1018.72
2023-04-10T11:04:37.477Z,1018.73
2023-04-10T11:05:37.485Z,1018.70
2023-04-10T11:06:37.479Z,1018.67
2023-04-10T11:07:37.510Z,1018.67
2023-04-10T11:08:37.468Z,1018.67
2023-04-10T11:09:37.467Z,1018.67
2023-04-10T11:10:37.483Z,1018.65
2023-04-10T11:11:37.469Z,1018.64
2023-04-10T11:12:38.643Z,1018.63
2023-04-10T11:13:37.469Z,1018.61
2023-04-10T11:14:37.465Z,1018.57
2023-04-10T11:15:37.460Z,1018.64
2023-04-10T11:16:37.535Z,1018.56
2023-04-10T11:17:37.548Z,1018.54
2023-04-10T11:18:37.450Z,1018.53
2023-04-10T11:19:37.470Z,1018.49
2023-04-10T11:20:37.457Z,1018.46
2023-04-10T11:21:37.467Z,1018.47
2023-04-10T11:22:37.467Z,1018.42
2023-04-10T11:23:37.468Z,1018.43
2023-04-10T11:24:37.487Z,1018.45
2023-04-10T11:25:37.476Z,1018.44
2023-04-10T11:26:37.441Z,1018.34
2023-04-10T11:27:37.473Z,1018.41
2023-04-10T11:28:37.457Z,1018.37
2023-04-10T11:29:37.454Z,1018.37
2023-04-10T11:30:37.464Z,1018.30
2023-04-10T11:31:37.478Z,1018.34
2023-04-10T11:32:37.497Z,1018.30
2023-04-10T11:33:37.442Z,1018.34
2023-04-10T11:34:37.465Z,1018.29
2023-04-10T11:35:37.499Z,1018.27
2023-04-10T11:36:37.434Z,1018.27
2023-04-10T11:37:37.420Z,1018.27
2023-04-10T11:38:37.424Z,1018.24
2023-04-10T11:39:37.496Z,1018.24
2023-04-10T11:40:37.447Z,1018.24
2023-04-10T11:41:37.441Z,1018.21
2023-04-10T11:42:37.434Z,1018.22
2023-04-10T11:43:37.438Z,1018.19
2023-04-10T11:44:37.418Z,1018.19
2023-04-10T11:45:37.454Z,1018.14
2023-04-10T11:46:37.441Z,1018.16
2023-04-10T11:47:37.427Z,1018.12
2023-04-10T11:48:37.406Z,1018.05
2023-04-10T11:49:37.422Z,1018.12
2023-04-10T11:50:37.411Z,1018.11
2023-04-10T11:51:37.412Z,1018.10
2023-04-10T11:52:37.400Z,1018.07
2023-04-10T11:53:37.399Z,1018.03
2023-04-10T11:54:37.419Z,1018.06
2023-04-10T11:55:37.415Z,1018.07
2023-04-10T11:56:37.425Z,1018.04
2023-04-10T11:57:37.408Z,1018.01
2023-04-10T11:58:37.395Z,1018.00
2023-04-10T11:59:37.389Z,1017.96
2023-04-10T12:00:37.414Z,1017.94
2023-04-10T12:01:37.447Z,1017.96
2023-04-10T12:02:37.483Z,1017.87
2023-04-10T12:03:37.604Z,1017.85
2023-04-10T12:04:37.915Z,1017.85
2023-04-10T12:05:37.394Z,1017.86
2023-04-10T12:06:37.408Z,1017.86
2023-04-10T12:07:37.392Z,1017.80
2023-04-10T12:08:37.484Z,1017.78
2023-04-10T12:09:37.403Z,1017.80
2023-04-10T12:10:37.392Z,1017.78
2023-04-10T12:11:37.382Z,1017.75
2023-04-10T12:12:37.382Z,1017.71
2023-04-10T12:13:37.398Z,1017.69
2023-04-10T12:14:37.383Z,1017.70
2023-04-10T12:15:37.486Z,1017.65
2023-04-10T12:16:37.411Z,1017.60
2023-04-10T12:17:37.392Z,1017.64